Poquoson, Virginia
Current Conditions -  °F | °C
As of 12:58 AM on Thursday 29 Jan 2015 (Local Time) from KLFI Reporting Station
Clear Clear  
Wind Chill: 19°   Ceiling: Unl
Heat Index: 28°   Visibility: 10mi
Dew Point: 11°   Wind: 8mph
Humidity: 50%   Direction: 330°NNW
Pressure: 30.33"   Gusts: NA
Location:  37.13°N, 76.37°W
Report Text: KLFI 290558Z AUTO 33007KT 10SM CLR M02/M12 A3033 RMK AO2 SLP278 T10251116 10008 21026 50005 $
Loading
Personal Weather Stations






























Interactive Weather Map New forecast layout! Learn more

10-Day Weather Forecast

Advertisements
Track Severe Weather on mobile